Latest Weather Observations for Condobolin Airport

IDN60801

Issued at 5:02 pm EDT Sunday 14 February 2016 (issued every 30 minutes, with the page automatically refreshed every 10 minutes)

About weather observations | Map of weather stations | Latest weather observations for NSW | Other Formats
Station Details ID: 050137 Name: CONDOBOLIN AIRPORT AWS Lat: -33.07 Lon: 147.21 Height: 192.6 m
Data from the previous 72 hours. | See also: Recent months at Condobolin Airport
Date/Time
EDT
Temp
°C
App
Temp
°C
Dew
Point
Rel
Hum
%
Delta-T
°C
Wind Press
QNH
hPa
Press
MSL
hPa
Rain
since 9 am
mm
Dir
 
Spd
km/h
Gust
km/h
Spd
kts
Gust
kts
14/05:00pm 37.7 32.6 9.3 18 16.6 SW 26 46 14 25 1006.9 1005.8 0.0
14/04:30pm 37.9 33.6 7.7 16 17.3 WNW 20 32 11 17 1006.8 1005.7 0.0
14/04:00pm 37.7 32.9 5.6 14 17.8 W 20 28 11 15 1006.9 1005.8 0.0
14/03:30pm 38.1 33.4 6.0 14 17.9 WSW 20 32 11 17 1007.3 1006.3 0.0
14/03:00pm 37.6 32.6 4.5 13 18.0 W 20 33 11 18 1007.6 1006.6 0.0
14/02:30pm 38.3 34.2 6.1 14 18.0 W 17 33 9 18 1007.8 1006.8 0.0
14/02:00pm 37.3 33.8 5.3 14 17.6 W 13 22 7 12 1008.2 1007.2 0.0
14/01:30pm 37.3 32.9 7.3 16 17.0 W 20 28 11 15 1008.5 1007.5 0.0
14/01:00pm 36.3 32.1 5.5 15 16.9 W 17 24 9 13 1009.0 1007.9 0.0
14/12:30pm 35.5 31.5 4.9 15 16.5 WSW 15 22 8 12 1009.4 1008.3 0.0
14/12:00pm 35.0 31.3 6.3 17 15.8 WSW 15 24 8 13 1009.9 1008.8 0.0
14/11:30am 34.3 31.6 7.4 19 15.0 W 11 20 6 11 1010.2 1009.1 0.0
14/11:00am 33.3 29.4 7.3 20 14.4 W 17 28 9 15 1010.4 1009.3 0.0
14/10:30am 33.3 30.0 8.0 21 14.2 WNW 15 20 8 11 1010.4 1009.3 0.0
14/10:00am 32.1 28.0 7.7 22 13.6 WNW 19 28 10 15 1010.3 1009.2 0.0
14/09:30am 31.8 28.5 8.1 23 13.2 N 15 20 8 11 1010.2 1009.1 0.0
14/09:00am 30.2 27.6 10.7 30 11.3 N 15 19 8 10 1010.2 1009.1 0.0
14/08:30am 29.0 28.0 11.1 33 10.3 N 7 11 4 6 1010.1 1009.0 0.0
14/08:00am 25.9 24.6 11.3 40 8.4 NW 9 13 5 7 1009.9 1008.8 0.0
14/07:30am 23.4 21.6 13.3 53 5.9 N 15 15 8 8 1009.4 1008.3 0.0
14/07:00am 20.1 19.7 12.3 61 4.4 NNE 6 7 3 4 1009.4 1008.3 0.0
14/06:30am 20.6 19.9 12.1 58 4.8 NNE 7 9 4 5 1009.3 1008.2 0.0
14/06:00am 20.1 19.8 11.3 57 4.9 NE 4 7 2 4 1009.1 1008.0 0.0
14/05:30am 22.3 21.4 11.4 50 6.1 NNW 7 9 4 5 1008.5 1007.5 0.0
14/05:00am 21.9 22.2 11.0 50 6.1 CALM 0 0 0 0 1008.4 1007.4 0.0
14/04:30am 22.4 21.4 10.9 48 6.4 NNW 7 7 4 4 1008.3 1007.3 0.0
14/04:00am 23.5 21.9 10.2 43 7.4 WNW 9 11 5 6 1008.4 1007.4 0.0
14/03:30am 24.0 22.2 9.6 40 7.9 WNW 9 11 5 6 1008.7 1007.6 0.0
14/03:00am 26.0 23.2 8.5 33 9.6 SW 13 28 7 15 1008.5 1007.5 0.0
14/02:30am 28.1 23.4 7.9 28 11.0 N 22 30 12 16 1008.0 1007.0 0.0
14/02:00am 28.1 24.1 8.4 29 10.9 N 19 26 10 14 1008.0 1007.0 0.0
14/01:30am 26.5 23.0 8.9 33 9.7 N 17 19 9 10 1008.1 1007.1 0.0
14/01:00am 26.8 23.2 8.3 31 10.1 N 17 22 9 12 1008.3 1007.3 0.0
14/12:30am 28.4 24.5 8.7 29 10.9 N 19 24 10 13 1008.2 1007.2 0.0
14/12:00am 27.2 24.2 9.1 32 10.0 N 15 19 8 10 1008.4 1007.4 0.0
 
Date/Time
EDT
Temp
°C
App
Temp
°C
Dew
Point
Rel
Hum
%
Delta-T
°C
Wind Press
QNH
hPa
Press
MSL
hPa
Rain
since 9 am
mm
Dir
 
Spd
km/h
Gust
km/h
Spd
kts
Gust
kts
13/11:30pm 28.6 25.0 8.3 28 11.2 N 17 20 9 11 1008.7 1007.6 0.0
13/11:00pm 29.2 25.2 8.3 27 11.6 N 19 22 10 12 1008.8 1007.7 0.0
13/10:30pm 27.8 24.8 9.1 31 10.4 N 15 17 8 9 1008.8 1007.7 0.0
13/10:00pm 28.2 25.3 9.5 31 10.5 N 15 17 8 9 1008.8 1007.7 0.0
13/09:30pm 28.8 25.7 9.0 29 11.0 NNE 15 15 8 8 1008.4 1007.4 0.0
13/09:00pm 29.1 26.7 8.7 28 11.4 NNE 11 13 6 7 1008.1 1007.1 0.0
13/08:30pm 30.4 28.0 8.7 26 12.1 NNE 11 13 6 7 1007.9 1006.9 0.0
13/08:00pm 32.2 30.2 7.1 21 13.8 NNE 7 13 4 7 1007.8 1006.8 0.0
13/07:30pm 35.3 32.6 5.7 16 16.2 N 9 15 5 8 1007.6 1006.6 0.0
13/07:00pm 37.4 35.8 6.4 15 17.3 WNW 4 13 2 7 1007.5 1006.5 0.0
13/06:30pm 36.7 33.8 4.9 14 17.3 NNW 9 19 5 10 1007.5 1006.5 0.0
13/06:00pm 37.7 35.6 6.6 15 17.5 WNW 7 13 4 7 1007.7 1006.7 0.0
13/05:30pm 37.4 34.1 6.4 15 17.3 W 13 26 7 14 1007.8 1006.8 0.0
13/05:00pm 37.7 33.1 5.6 14 17.8 NW 19 28 10 15 1008.0 1007.0 0.0
13/04:30pm 37.3 35.1 5.3 14 17.5 SSE 6 11 3 6 1008.3 1007.3 0.0
13/04:00pm 36.8 34.5 5.9 15 17.1 NW 7 26 4 14 1008.8 1007.7 0.0
13/03:30pm 36.3 34.0 7.4 17 16.3 NNE 9 17 5 9 1009.3 1008.2 0.0
13/03:00pm 36.4 32.4 6.6 16 16.6 NNW 17 28 9 15 1009.8 1008.7 0.0
13/02:30pm 36.2 32.7 7.3 17 16.3 N 15 28 8 15 1010.2 1009.1 0.0
13/02:00pm 36.2 32.7 8.9 19 15.7 NNW 17 26 9 14 1010.8 1009.7 0.0
13/01:30pm 35.1 31.6 10.2 22 14.6 N 19 35 10 19 1011.2 1010.1 0.0
13/01:00pm 34.4 31.1 9.6 22 14.3 NNW 17 24 9 13 1011.6 1010.6 0.0
13/12:30pm 34.3 30.4 12.0 25 13.4 N 24 32 13 17 1011.9 1010.9 0.0
13/12:00pm 33.4 29.6 12.4 28 12.6 N 24 33 13 18 1012.3 1011.3 0.0
13/11:30am 32.8 28.8 11.9 28 12.4 N 24 32 13 17 1012.6 1011.6 0.0
13/11:00am 31.0 27.3 12.8 32 10.9 N 24 32 13 17 1012.9 1011.9 0.0
13/10:30am 30.3 26.5 13.6 36 10.1 N 26 33 14 18 1013.0 1012.0 0.0
13/10:00am 29.2 25.5 13.8 39 9.3 N 26 35 14 19 1013.2 1012.2 0.0
13/09:30am 28.5 24.6 14.3 41 8.6 N 28 37 15 20 1013.2 1012.2 0.0
13/09:00am 27.1 23.7 14.8 47 7.5 NNE 26 37 14 20 1013.1 1012.1 0.0
13/08:30am 26.2 24.1 15.3 51 6.7 NNE 20 30 11 16 1013.1 1012.1 0.0
13/08:00am 24.7 23.8 15.9 58 5.4 NE 15 22 8 12 1012.8 1011.8 0.0
13/07:30am 23.5 22.6 15.8 62 4.7 NE 15 22 8 12 1012.6 1011.6 0.0
13/07:00am 23.1 21.3 15.4 62 4.7 NNE 19 26 10 14 1012.3 1011.3 0.0
13/06:30am 23.2 21.2 15.0 60 4.9 NE 19 24 10 13 1011.9 1010.9 0.0
13/06:00am 23.6 22.3 14.9 58 5.2 NE 15 22 8 12 1011.6 1010.6 0.0
13/05:30am 23.5 21.6 14.2 56 5.5 NE 17 20 9 11 1011.3 1010.2 0.0
13/05:00am 24.2 22.0 14.3 54 5.9 NNE 19 24 10 13 1011.3 1010.2 0.0
13/04:30am 24.4 21.9 14.2 53 6.1 NNE 20 26 11 14 1011.3 1010.2 0.0
13/04:00am 24.8 22.0 14.3 52 6.3 NNE 22 30 12 16 1011.3 1010.2 0.0
13/03:30am 24.9 22.6 14.1 51 6.4 NNE 19 26 10 14 1011.3 1010.2 0.0
13/03:00am 25.3 22.6 13.5 48 7.0 NNE 20 26 11 14 1011.3 1010.2 0.0
13/02:30am 25.9 22.9 12.7 44 7.7 NNE 20 28 11 15 1011.5 1010.4 0.0
13/02:00am 26.5 23.1 12.5 41 8.2 NNE 22 28 12 15 1011.7 1010.7 0.0
13/01:30am 25.8 23.1 11.6 41 8.1 NNE 17 20 9 11 1011.6 1010.6 0.0
13/01:00am 24.2 22.0 10.8 43 7.5 NNE 13 15 7 8 1011.4 1010.3 0.0
13/12:30am 25.2 22.7 11.0 41 8.0 NNE 15 17 8 9 1011.4 1010.3 0.0
13/12:00am 22.2 22.1 12.2 53 5.7 NE 4 9 2 5 1011.5 1010.4 0.0
 
Date/Time
EDT
Temp
°C
App
Temp
°C
Dew
Point
Rel
Hum
%
Delta-T
°C
Wind Press
QNH
hPa
Press
MSL
hPa
Rain
since 9 am
mm
Dir
 
Spd
km/h
Gust
km/h
Spd
kts
Gust
kts
12/11:30pm 22.4 22.3 10.9 48 6.4 NE 2 6 1 3 1011.4 1010.3 0.0
12/11:00pm 23.9 23.4 10.6 43 7.4 NE 4 9 2 5 1011.5 1010.4 0.0
12/10:30pm 24.0 23.2 9.6 40 7.9 NE 4 7 2 4 1011.7 1010.7 0.0
12/10:00pm 25.1 24.6 9.4 37 8.7 NNE 2 6 1 3 1011.7 1010.7 0.0
12/09:30pm 25.6 25.5 9.4 36 8.9 CALM 0 0 0 0 1011.6 1010.6 0.0
12/09:00pm 26.6 26.4 9.0 33 9.7 CALM 0 0 0 0 1011.3 1010.2 0.0
12/08:30pm 28.2 27.7 8.0 28 11.0 CALM 0 0 0 0 1011.2 1010.1 0.0
12/08:00pm 32.1 30.9 4.8 18 14.5 CALM 0 0 0 0 1011.0 1009.9 0.0
12/07:30pm 33.7 32.5 4.4 16 15.5 CALM 0 0 0 0 1010.8 1009.7 0.0
12/07:00pm 34.2 32.5 3.9 15 16.0 ENE 2 15 1 8 1010.6 1009.5 0.0
12/06:30pm 34.4 32.9 3.1 14 16.3 CALM 0 0 0 0 1010.6 1009.5 0.0
12/06:00pm 34.7 32.5 3.3 14 16.5 WSW 4 11 2 6 1010.6 1009.5 0.0
12/05:30pm 35.4 32.4 3.9 14 16.7 NNW 9 17 5 9 1010.7 1009.6 0.0
12/05:00pm 35.3 32.8 4.8 15 16.4 SW 7 20 4 11 1010.8 1009.7 0.0
12/04:30pm 35.7 31.9 4.1 14 16.9 W 13 26 7 14 1011.0 1009.9 0.0
12/04:00pm 35.7 32.9 6.9 17 16.1 NW 11 24 6 13 1011.2 1010.1 0.0
12/03:30pm 34.9 32.5 7.1 18 15.5 ESE 9 13 5 7 1011.7 1010.7 0.0
12/03:00pm 33.4 30.5 6.6 19 14.7 N 11 20 6 11 1012.1 1011.1 0.0
12/02:30pm 34.3 31.6 8.8 21 14.5 N 13 19 7 10 1012.4 1011.4 0.0
12/02:00pm 33.9 32.4 10.5 24 13.7 E 9 15 5 8 1012.8 1011.8 0.0
12/01:30pm 33.2 31.9 9.9 24 13.5 ENE 7 17 4 9 1013.2 1012.2 0.0
12/01:00pm 32.6 30.9 11.2 27 12.6 NNW 11 24 6 13 1013.5 1012.5 0.0
12/12:30pm 31.7 30.1 11.5 29 11.9 N 11 22 6 12 1014.1 1013.0 0.0
12/12:00pm 31.6 29.6 13.8 34 10.8 NNE 17 24 9 13 1014.5 1013.4 0.0
12/11:30am 30.6 29.3 13.8 35 10.2 NNE 13 20 7 11 1014.7 1013.6 0.0
12/11:00am 29.1 28.5 14.5 41 8.9 NE 11 19 6 10 1014.9 1013.8 0.0
12/10:30am 28.2 27.4 14.1 42 8.5 NE 11 17 6 9 1015.1 1014.0 0.0
12/10:00am 27.2 26.2 14.6 46 7.6 ENE 13 19 7 10 1015.2 1014.1 0.0
12/09:30am 26.2 25.4 14.0 47 7.3 ENE 11 17 6 9 1015.2 1014.1 0.0
12/09:00am 25.5 25.3 14.6 51 6.6 E 9 15 5 8 1015.1 1014.0 0.0
12/08:30am 23.8 23.8 14.2 55 5.7 ESE 7 9 4 5 1014.9 1013.8 0.0
12/08:00am 21.9 21.9 14.3 62 4.5 SE 7 11 4 6 1014.4 1013.3 0.0
12/07:30am 20.2 22.0 15.4 74 2.9 CALM 0 7 0 4 1013.7 1012.7 0.0
12/07:00am 17.9 19.0 13.4 75 2.6 CALM 0 0 0 0 1013.2 1012.2 0.0
12/06:30am 17.9 18.8 12.8 72 2.9 CALM 0 6 0 3 1013.0 1012.0 0.0
12/06:00am 18.4 18.4 12.4 68 3.4 ESE 4 9 2 5 1012.8 1011.8 0.0
12/05:30am 18.9 19.6 12.2 65 3.8 CALM 0 0 0 0 1012.5 1011.5 0.0
12/05:00am 19.5 19.9 12.5 64 4.0 NNW 2 6 1 3 1012.3 1011.3 0.0
12/04:30am 20.7 21.1 12.4 59 4.7 N 2 9 1 5 1012.1 1011.1 0.0
12/04:00am 21.6 21.1 11.9 54 5.5 NE 6 9 3 5 1012.4 1011.4 0.0
12/03:30am 22.8 21.4 12.1 51 6.1 NE 11 15 6 8 1012.5 1011.5 0.0
12/03:00am 22.9 21.9 12.2 51 6.1 NE 9 13 5 7 1012.7 1011.7 0.0
12/02:30am 24.1 22.5 12.7 49 6.6 NE 13 19 7 10 1012.8 1011.8 0.0
12/02:00am 24.0 21.6 12.6 49 6.6 NNE 17 20 9 11 1013.0 1012.0 0.0
12/01:30am 23.5 21.2 11.9 48 6.6 NNE 15 20 8 11 1013.3 1012.3 0.0
12/01:00am 24.0 22.1 11.7 46 7.0 NNE 13 17 7 9 1013.5 1012.5 0.0
12/12:30am 23.9 21.3 11.9 47 6.9 NE 17 20 9 11 1013.6 1012.6 0.0
12/12:00am 23.0 23.2 11.7 49 6.4 N 2 7 1 4 1013.0 1012.0 0.0
 
Date/Time
EDT
Temp
°C
App
Temp
°C
Dew
Point
Rel
Hum
%
Delta-T
°C
Wind Press
QNH
hPa
Press
MSL
hPa
Rain
since 9 am
mm
Dir
 
Spd
km/h
Gust
km/h
Spd
kts
Gust
kts
11/11:30pm 24.2 22.6 11.5 45 7.2 N 11 13 6 7 1012.8 1011.8 0.0
11/11:00pm 24.9 23.9 11.1 42 7.8 WNW 7 11 4 6 1013.1 1012.1 0.0
11/10:30pm 25.5 24.9 10.5 39 8.4 NNW 4 11 2 6 1013.0 1012.0 0.0
11/10:00pm 26.3 23.8 9.6 35 9.3 NW 13 22 7 12 1012.6 1011.6 0.0
11/09:30pm 27.7 23.8 9.5 32 10.2 NNW 20 35 11 19 1012.0 1011.0 0.0
11/09:00pm 28.5 24.4 8.7 29 11.0 N 20 30 11 16 1011.4 1010.3 0.0
11/08:30pm 29.5 25.8 6.2 23 12.4 NNW 15 19 8 10 1011.0 1009.9 0.0
11/08:00pm 31.0 26.6 4.7 19 13.8 NNW 17 20 9 11 1010.5 1009.4 0.0
11/07:30pm 32.0 27.4 5.5 19 14.2 NW 19 26 10 14 1009.9 1008.8 0.0
11/07:00pm 32.5 27.0 5.9 19 14.4 NNW 24 32 13 17 1009.4 1008.3 0.0
11/06:30pm 34.3 32.0 3.0 14 16.3 NNW 4 9 2 5 1009.0 1007.9 0.0
11/06:00pm 34.5 31.5 2.1 13 16.7 NNW 7 9 4 5 1008.7 1007.6 0.0
11/05:30pm 34.7 30.6 2.3 13 16.7 WSW 13 15 7 8 1008.7 1007.6 0.0

Other Formats:

Comma delimited format used in spreadsheet applications
http://www.bom.gov.au/fwo/IDN60801/IDN60801.95708.axf

JavaScript Object Notation format (JSON) in row-major order
http://www.bom.gov.au/fwo/IDN60801/IDN60801.95708.json